Time;durP1;ratioP1;P1;durP2;ratioP2;P2;SDS_P1;SDS_P2;PMS_P1;PMS_P2;Temp;Humidity;BMP_temperature;BMP_pressure;BME280_temperature;BME280_humidity;BME280_pressure;Samples;Min_cycle;Max_cycle;Signal;HPM_P1;HPM_P2
2021/01/02 00:00:08;;;;;;;1.60;0.90;;;2.60;99.90;;;3.31;100.00;-20772.19;5061811;28;20189;-65
2021/01/02 00:03:05;;;;;;;0.60;0.60;;;2.70;99.90;;;3.32;100.00;-20772.50;5077088;28;20196;-65
2021/01/02 00:05:45;;;;;;;0.60;0.50;;;2.70;99.90;;;3.25;100.00;-20770.53;5072256;28;20625;-65
2021/01/02 00:08:19;;;;;;;0.60;0.60;;;2.70;99.90;;;3.27;100.00;-20771.09;5059152;28;20235;-65
2021/01/02 00:10:59;;;;;;;0.60;0.50;;;2.60;99.90;;;3.24;100.00;-20770.25;5071889;28;20255;-65
2021/01/02 00:13:59;;;;;;;0.60;0.50;;;2.60;99.90;;;3.28;100.00;-20771.38;5057281;28;20630;-65
2021/01/02 00:17:20;;;;;;;0.70;0.60;;;2.60;99.90;;;3.25;100.00;-20770.53;5059875;28;20632;-65
2021/01/02 00:20:06;;;;;;;0.60;0.50;;;2.60;99.90;;;3.17;100.00;-20768.31;5055857;28;20304;-65
2021/01/02 00:22:50;;;;;;;0.60;0.60;;;2.60;99.90;;;3.15;100.00;-20767.88;5059885;28;20193;-64
2021/01/02 00:25:20;;;;;;;0.60;0.60;;;2.60;99.90;;;3.08;100.00;-20765.78;5059230;28;20217;-64
2021/01/02 00:28:17;;;;;;;0.60;0.50;;;2.60;99.90;;;3.16;100.00;-20768.03;5069182;28;20243;-64
2021/01/02 00:31:28;;;;;;;0.60;0.60;;;2.60;99.90;;;3.23;100.00;-20769.97;5062287;28;20188;-64
2021/01/02 00:34:40;;;;;;;0.60;0.55;;;2.60;99.90;;;3.24;100.00;-20770.25;5040223;28;20221;-67
2021/01/02 00:37:16;;;;;;;0.60;0.60;;;2.60;99.90;;;3.28;100.00;-20771.38;5053220;28;20193;-64
2021/01/02 00:40:01;;;;;;;0.60;0.60;;;2.70;99.90;;;3.38;100.00;-20774.16;5069529;28;20189;-65
2021/01/02 00:42:29;;;;;;;0.60;0.57;;;2.70;99.90;;;3.45;100.00;-20775.84;5058382;28;20291;-65
2021/01/02 00:44:59;;;;;;;0.80;0.80;;;2.80;99.90;;;3.42;100.00;-20775.00;5060606;28;20197;-65
2021/01/02 00:47:27;;;;;;;0.60;0.50;;;2.80;99.90;;;3.58;100.00;-20779.47;5067742;28;20181;-65
2021/01/02 00:49:55;;;;;;;0.70;0.60;;;2.80;99.90;;;3.55;100.00;-20778.63;5069816;28;20293;-65
2021/01/02 00:53:20;;;;;;;0.60;0.60;;;2.80;99.90;;;3.43;100.00;-20775.28;5055553;28;20247;-65
2021/01/02 00:56:27;;;;;;;0.60;0.52;;;2.80;99.90;;;3.53;100.00;-20778.06;5053595;28;20197;-65
2021/01/02 00:59:57;;;;;;;0.60;0.60;;;2.80;99.90;;;3.41;100.00;-20774.84;5058939;28;20213;-64
2021/01/02 01:03:02;;;;;;;0.60;0.57;;;2.80;99.90;;;3.32;100.00;-20772.50;5021562;28;20231;-65
2021/01/02 01:05:37;;;;;;;0.60;0.50;;;2.80;99.90;;;3.31;100.00;-20772.06;5062882;28;20193;-64
2021/01/02 01:08:06;;;;;;;0.60;0.50;;;2.80;99.90;;;3.30;100.00;-20771.94;5056194;28;20177;-64
2021/01/02 01:10:35;;;;;;;1.13;1.02;;;2.70;99.90;;;3.31;100.00;-20772.19;5064775;28;20186;-65
2021/01/02 01:13:07;;;;;;;0.60;0.50;;;2.70;99.90;;;3.32;100.00;-20772.34;5064519;28;20260;-65
2021/01/02 01:15:35;;;;;;;0.60;0.50;;;2.70;99.90;;;3.27;100.00;-20771.09;5061123;28;20173;-65
2021/01/02 01:18:36;;;;;;;0.60;0.50;;;2.70;99.90;;;3.25;100.00;-20770.41;5052964;28;20206;-64
2021/01/02 01:21:09;;;;;;;0.70;0.70;;;2.70;99.90;;;3.22;100.00;-20769.69;5048081;28;20209;-64
2021/01/02 01:24:13;;;;;;;0.60;0.60;;;2.70;99.90;;;3.17;100.00;-20768.31;5070594;28;20185;-65
2021/01/02 01:27:12;;;;;;;0.60;0.60;;;2.70;99.90;;;3.17;100.00;-20768.31;5061333;28;20506;-67
2021/01/02 01:29:57;;;;;;;0.60;0.60;;;2.70;99.90;;;3.18;100.00;-20768.44;5059530;28;20630;-64
2021/01/02 01:32:27;;;;;;;0.60;0.60;;;2.70;99.90;;;3.08;100.00;-20765.94;5079500;28;20185;-65
2021/01/02 01:34:57;;;;;;;0.60;0.53;;;2.60;99.90;;;3.14;100.00;-20767.47;5057298;28;20463;-65
2021/01/02 01:37:29;;;;;;;0.70;0.70;;;2.60;99.90;;;3.06;100.00;-20765.38;5054554;28;20463;-65
2021/01/02 01:39:58;;;;;;;0.60;0.60;;;2.60;99.90;;;3.00;100.00;-20763.56;5072794;28;20177;-67
2021/01/02 01:42:42;;;;;;;0.67;0.60;;;2.60;99.90;;;3.00;100.00;-20763.56;5062953;28;20197;-65
2021/01/02 01:46:13;;;;;;;0.60;0.55;;;2.60;99.90;;;3.03;100.00;-20764.41;5063046;28;20426;-64
2021/01/02 01:49:05;;;;;;;3.35;2.17;;;2.60;99.90;;;3.03;100.00;-20764.53;5045761;28;20234;-64
2021/01/02 01:51:56;;;;;;;1.10;1.00;;;2.50;99.90;;;2.95;100.00;-20762.16;5074158;28;20208;-65
2021/01/02 01:54:53;;;;;;;0.70;0.70;;;2.50;99.90;;;2.93;100.00;-20761.59;5061831;28;20675;-64
2021/01/02 01:57:25;;;;;;;0.60;0.50;;;2.40;99.90;;;2.89;100.00;-20760.63;5060310;28;20248;-64
2021/01/02 02:00:14;;;;;;;0.60;0.50;;;2.40;99.90;;;2.77;100.00;-20757.41;5057524;28;20189;-65
2021/01/02 02:03:03;;;;;;;0.70;0.68;;;2.40;99.90;;;2.58;100.00;-20752.13;5066922;28;20186;-65
2021/01/02 02:06:00;;;;;;;0.60;0.60;;;2.30;99.90;;;2.35;100.00;-20745.81;5059149;28;20182;-65
2021/01/02 02:08:43;;;;;;;0.60;0.60;;;2.10;99.90;;;2.13;100.00;-20739.97;5056583;28;20192;-64
2021/01/02 02:11:42;;;;;;;0.70;0.60;;;1.90;99.90;;;2.00;100.00;-20736.19;5068289;28;20201;-65
2021/01/02 02:14:14;;;;;;;0.70;0.70;;;1.80;99.90;;;1.79;100.00;-20730.59;5060215;28;20185;-65
2021/01/02 02:16:51;;;;;;;0.60;0.50;;;1.60;99.90;;;1.64;100.00;-20726.56;5065237;28;20190;-64
2021/01/02 02:20:05;;;;;;;0.60;0.50;;;1.50;99.90;;;1.52;100.00;-20723.06;5069086;28;20738;-64
2021/01/02 02:22:36;;;;;;;0.60;0.60;;;1.40;99.90;;;1.58;100.00;-20724.75;5028102;28;20213;-64
2021/01/02 02:25:07;;;;;;;0.60;0.50;;;1.40;99.90;;;1.60;100.00;-20725.28;5064454;28;20213;-65
2021/01/02 02:27:37;;;;;;;0.63;0.60;;;1.50;99.90;;;1.71;100.00;-20728.22;5058599;28;20202;-65
2021/01/02 02:30:10;;;;;;;0.70;0.70;;;1.50;99.90;;;1.83;100.00;-20731.59;5058926;28;20185;-70
2021/01/02 02:32:39;;;;;;;0.60;0.50;;;1.70;99.90;;;1.89;100.00;-20733.41;5070422;28;20661;-66
2021/01/02 02:35:11;;;;;;;0.60;0.50;;;1.60;99.90;;;1.96;100.00;-20735.06;5055114;28;20212;-66
2021/01/02 02:37:41;;;;;;;0.60;0.60;;;1.70;99.90;;;2.07;100.00;-20738.28;5071204;28;20201;-66
2021/01/02 02:40:10;;;;;;;0.60;0.60;;;1.70;99.90;;;2.14;100.00;-20740.25;5058430;28;20201;-66
2021/01/02 02:42:44;;;;;;;0.60;0.50;;;1.80;99.90;;;2.27;100.00;-20743.72;5067856;28;20247;-66
2021/01/02 02:45:15;;;;;;;0.60;0.50;;;1.80;99.90;;;2.32;100.00;-20745.00;5055588;28;20200;-66
2021/01/02 02:47:45;;;;;;;1.13;1.10;;;1.90;99.90;;;2.39;100.00;-20746.94;5071377;28;20216;-65
2021/01/02 02:50:26;;;;;;;0.60;0.50;;;1.90;99.90;;;2.46;100.00;-20748.75;5059602;28;20242;-66
2021/01/02 02:53:03;;;;;;;0.60;0.50;;;1.90;99.90;;;2.52;100.00;-20750.56;5063565;28;20626;-66
2021/01/02 02:55:30;;;;;;;0.60;0.60;;;2.00;99.90;;;2.58;100.00;-20752.13;5073592;28;20613;-67
2021/01/02 02:57:59;;;;;;;0.60;0.50;;;2.10;99.90;;;2.64;100.00;-20753.78;5070618;28;20197;-64
2021/01/02 03:00:27;;;;;;;0.60;0.50;;;2.10;99.90;;;2.68;100.00;-20754.91;5056416;28;20264;-64
2021/01/02 03:02:54;;;;;;;0.60;0.60;;;2.10;99.90;;;2.73;100.00;-20756.31;5060545;28;20213;-65
2021/01/02 03:05:21;;;;;;;0.60;0.50;;;2.20;99.90;;;2.84;100.00;-20759.38;5066764;28;20189;-64
2021/01/02 03:07:49;;;;;;;0.60;0.50;;;2.20;99.90;;;2.83;100.00;-20758.94;5071559;28;20256;-65
2021/01/02 03:10:18;;;;;;;0.60;0.55;;;2.30;99.90;;;2.84;100.00;-20759.38;5059933;28;20220;-65
2021/01/02 03:12:48;;;;;;;0.63;0.60;;;2.30;99.90;;;2.79;100.00;-20757.97;5073566;28;20182;-65
2021/01/02 03:15:17;;;;;;;0.60;0.50;;;2.30;99.90;;;2.81;100.00;-20758.53;5073558;28;20195;-65
2021/01/02 03:17:46;;;;;;;1.05;1.05;;;2.20;99.90;;;2.85;100.00;-20759.66;5057316;28;20584;-65
2021/01/02 03:20:16;;;;;;;0.60;0.50;;;2.30;99.90;;;2.81;100.00;-20758.53;5069607;28;20217;-64
2021/01/02 03:22:46;;;;;;;0.68;0.60;;;2.20;99.90;;;2.88;100.00;-20760.50;5063349;28;20211;-66
2021/01/02 03:25:14;;;;;;;0.70;0.60;;;2.30;99.90;;;2.90;100.00;-20761.03;5071615;28;20558;-64
2021/01/02 03:27:42;;;;;;;0.80;0.80;;;2.30;99.90;;;2.94;100.00;-20762.03;5067481;28;20212;-65
2021/01/02 03:30:12;;;;;;;0.60;0.50;;;2.30;99.90;;;2.92;100.00;-20761.47;5064878;28;20250;-65
2021/01/02 03:32:40;;;;;;;0.60;0.50;;;2.30;99.90;;;2.93;100.00;-20761.75;5065240;28;20182;-64
2021/01/02 03:35:10;;;;;;;0.60;0.50;;;2.30;99.90;;;2.93;100.00;-20761.75;5064139;28;20262;-64
2021/01/02 03:37:39;;;;;;;0.60;0.60;;;2.40;99.90;;;2.94;100.00;-20761.88;5056804;28;20206;-66
2021/01/02 03:40:09;;;;;;;0.60;0.50;;;2.40;99.90;;;2.91;100.00;-20761.19;5069298;28;20206;-64
2021/01/02 03:42:36;;;;;;;0.60;0.50;;;2.40;99.90;;;2.96;100.00;-20762.59;5061774;28;20660;-64
2021/01/02 03:45:06;;;;;;;0.60;0.57;;;2.40;99.90;;;3.02;100.00;-20764.13;5061945;28;20197;-64
2021/01/02 03:47:33;;;;;;;0.60;0.50;;;2.50;99.90;;;3.03;100.00;-20764.41;5068081;28;20608;-70
2021/01/02 03:50:00;;;;;;;0.60;0.50;;;2.50;99.90;;;3.06;100.00;-20765.38;5069448;28;20205;-65
2021/01/02 03:52:28;;;;;;;0.60;0.60;;;2.50;99.90;;;3.06;100.00;-20765.38;5059279;28;20295;-65
2021/01/02 03:54:55;;;;;;;0.60;0.50;;;2.50;99.90;;;3.00;100.00;-20763.69;5054770;28;20284;-66
2021/01/02 03:57:23;;;;;;;0.60;0.60;;;2.50;99.90;;;2.93;100.00;-20761.59;5068120;28;20649;-66
2021/01/02 03:59:49;;;;;;;0.60;0.50;;;2.40;99.90;;;2.84;100.00;-20759.38;5056516;28;20303;-66
2021/01/02 04:02:16;;;;;;;0.60;0.50;;;2.30;99.90;;;2.78;100.00;-20757.69;5057307;28;20247;-66
2021/01/02 04:04:43;;;;;;;0.60;0.50;;;2.30;99.90;;;2.73;100.00;-20756.31;5063363;28;20243;-66
2021/01/02 04:07:10;;;;;;;0.60;0.60;;;2.30;99.90;;;2.62;100.00;-20753.38;5059956;28;20186;-66
2021/01/02 04:09:38;;;;;;;0.60;0.60;;;2.20;99.90;;;2.59;100.00;-20752.41;5052173;28;20277;-67
2021/01/02 04:12:05;;;;;;;0.60;0.60;;;2.10;99.90;;;2.49;100.00;-20749.59;5069091;28;20235;-66
2021/01/02 04:14:32;;;;;;;0.60;0.50;;;2.00;99.90;;;2.41;100.00;-20747.66;5061204;28;20631;-66
2021/01/02 04:16:59;;;;;;;0.60;0.50;;;2.00;99.90;;;2.50;100.00;-20750.00;5061680;28;20239;-66
2021/01/02 04:19:26;;;;;;;0.70;0.60;;;2.10;99.90;;;2.57;100.00;-20751.97;5068117;28;20217;-67
2021/01/02 04:21:53;;;;;;;0.60;0.60;;;2.20;99.90;;;2.64;100.00;-20753.78;5068978;28;20181;-66
2021/01/02 04:24:19;;;;;;;0.68;0.60;;;2.20;99.90;;;2.64;100.00;-20753.94;5052473;28;20197;-66
2021/01/02 04:26:47;;;;;;;0.60;0.50;;;2.10;99.90;;;2.67;100.00;-20754.63;5062816;28;20216;-66
2021/01/02 04:29:14;;;;;;;0.60;0.60;;;2.20;99.90;;;2.75;100.00;-20756.72;5059455;28;20189;-64
2021/01/02 04:31:41;;;;;;;0.60;0.60;;;2.20;99.90;;;2.80;100.00;-20758.25;5069356;28;20220;-64
2021/01/02 04:34:09;;;;;;;0.60;0.60;;;2.30;99.90;;;2.92;100.00;-20761.31;5055410;28;20221;-64
2021/01/02 04:36:37;;;;;;;0.60;0.60;;;2.40;99.90;;;2.96;100.00;-20762.44;5064667;28;20182;-64
2021/01/02 04:39:05;;;;;;;0.60;0.50;;;2.40;99.90;;;3.01;100.00;-20763.84;5064644;28;20254;-64
2021/01/02 04:41:33;;;;;;;0.60;0.50;;;2.40;99.90;;;3.01;100.00;-20763.84;5064765;28;20197;-64
2021/01/02 04:44:02;;;;;;;0.60;0.60;;;2.50;99.90;;;3.02;100.00;-20764.13;5071023;28;20208;-64
2021/01/02 04:46:30;;;;;;;0.98;0.98;;;2.40;99.90;;;3.06;100.00;-20765.22;5065552;28;20181;-65
2021/01/02 04:48:58;;;;;;;0.60;0.60;;;2.50;99.90;;;3.13;100.00;-20767.31;5063953;28;20271;-64
2021/01/02 04:51:26;;;;;;;0.60;0.60;;;2.50;99.90;;;3.17;100.00;-20768.31;5066535;28;20580;-65
2021/01/02 04:54:00;;;;;;;2.58;2.38;;;2.60;99.90;;;3.21;100.00;-20769.41;5067717;28;20197;-65
2021/01/02 04:56:31;;;;;;;0.60;0.60;;;2.60;99.90;;;3.23;100.00;-20769.97;5059814;28;20183;-65
2021/01/02 04:59:07;;;;;;;0.70;0.60;;;2.60;99.90;;;3.35;100.00;-20773.19;5061405;28;20727;-64
2021/01/02 05:01:37;;;;;;;0.60;0.50;;;2.70;99.90;;;3.43;100.00;-20775.28;5068933;28;20189;-66
2021/01/02 05:04:04;;;;;;;0.60;0.50;;;2.80;99.90;;;3.39;100.00;-20774.44;5056863;28;20213;-65
2021/01/02 05:06:31;;;;;;;0.60;0.60;;;2.80;99.90;;;3.35;100.00;-20773.31;5057197;28;20737;-64
2021/01/02 05:09:00;;;;;;;0.60;0.60;;;2.80;99.90;;;3.41;100.00;-20774.72;5067475;28;20177;-64
2021/01/02 05:11:33;;;;;;;0.60;0.60;;;2.80;99.90;;;3.41;100.00;-20774.84;5061165;28;20209;-65
2021/01/02 05:14:02;;;;;;;0.60;0.55;;;2.80;99.90;;;3.44;100.00;-20775.56;5072467;28;20501;-65
2021/01/02 05:16:37;;;;;;;0.60;0.60;;;2.80;99.90;;;3.49;100.00;-20777.09;5066903;28;20185;-65
2021/01/02 05:19:09;;;;;;;0.60;0.50;;;2.80;99.90;;;3.56;100.00;-20778.91;5070429;28;20295;-65
2021/01/02 05:21:42;;;;;;;0.60;0.50;;;2.80;99.90;;;3.55;100.00;-20778.75;5075513;28;20209;-64
2021/01/02 05:24:12;;;;;;;0.60;0.50;;;2.80;99.90;;;3.50;100.00;-20777.38;5060999;28;20216;-64
2021/01/02 05:26:42;;;;;;;0.60;0.60;;;2.80;99.90;;;3.51;100.00;-20777.66;5067509;28;20190;-65
2021/01/02 05:29:12;;;;;;;0.60;0.60;;;2.80;99.90;;;3.58;100.00;-20779.59;5068913;28;20599;-65
2021/01/02 05:31:41;;;;;;;0.70;0.70;;;2.80;99.90;;;3.51;100.00;-20777.50;5071770;28;20840;-65
2021/01/02 05:34:10;;;;;;;0.60;0.60;;;2.80;99.90;;;3.44;100.00;-20775.69;5070143;28;20308;-65
2021/01/02 05:36:37;;;;;;;0.60;0.60;;;2.80;99.90;;;3.46;100.00;-20776.09;5062759;28;20451;-64
2021/01/02 05:39:05;;;;;;;0.60;0.60;;;2.80;99.90;;;3.39;100.00;-20774.44;5074998;28;20466;-64
2021/01/02 05:41:54;;;;;;;0.60;0.55;;;2.80;99.90;;;3.43;100.00;-20775.41;5059376;28;20232;-66
2021/01/02 05:44:23;;;;;;;0.60;0.50;;;2.80;99.90;;;3.41;100.00;-20774.72;5069215;28;20319;-64
2021/01/02 05:46:53;;;;;;;0.60;0.60;;;2.80;99.90;;;3.43;100.00;-20775.28;5062540;28;20240;-65
2021/01/02 05:49:38;;;;;;;0.70;0.70;;;2.80;99.90;;;3.43;100.00;-20775.28;5069961;28;20240;-65
2021/01/02 05:52:07;;;;;;;0.60;0.60;;;2.80;99.90;;;3.38;100.00;-20774.03;5057200;28;20185;-66
2021/01/02 05:54:36;;;;;;;0.60;0.60;;;2.80;99.90;;;3.35;100.00;-20773.19;5074160;28;20322;-65
2021/01/02 05:57:05;;;;;;;0.60;0.50;;;2.80;99.90;;;3.39;100.00;-20774.31;5071506;28;20591;-64
2021/01/02 05:59:36;;;;;;;0.60;0.50;;;2.80;99.90;;;3.38;100.00;-20774.16;5055845;28;20288;-64
2021/01/02 06:02:23;;;;;;;0.60;0.50;;;2.80;99.90;;;3.39;100.00;-20774.44;5073998;28;20182;-65
2021/01/02 06:04:58;;;;;;;0.60;0.55;;;2.80;99.90;;;3.38;100.00;-20774.16;5064988;28;20593;-65
2021/01/02 06:07:28;;;;;;;0.60;0.50;;;2.80;99.90;;;3.34;100.00;-20773.03;5055607;28;20209;-64
2021/01/02 06:09:56;;;;;;;0.60;0.50;;;2.80;99.90;;;3.38;100.00;-20774.16;5058851;28;20197;-65
2021/01/02 06:12:28;;;;;;;0.60;0.50;;;2.80;99.90;;;3.34;100.00;-20773.03;5069031;28;20214;-65
2021/01/02 06:14:58;;;;;;;0.60;0.57;;;2.70;99.90;;;3.38;100.00;-20774.03;5064314;28;20181;-66
2021/01/02 06:17:29;;;;;;;0.60;0.60;;;2.70;99.90;;;3.32;100.00;-20772.50;5070352;28;20231;-64
2021/01/02 06:20:00;;;;;;;0.60;0.60;;;2.70;99.90;;;3.27;100.00;-20771.09;5058040;28;20241;-65
2021/01/02 06:22:30;;;;;;;0.60;0.60;;;2.70;99.90;;;3.32;100.00;-20772.50;5067916;28;20442;-65
2021/01/02 06:24:58;;;;;;;0.60;0.50;;;2.70;99.90;;;3.33;100.00;-20772.75;5065008;28;20467;-65
2021/01/02 06:27:26;;;;;;;0.60;0.60;;;2.70;99.90;;;3.30;100.00;-20771.94;5059728;28;20193;-65
2021/01/02 06:29:56;;;;;;;0.60;0.50;;;2.70;99.90;;;3.27;100.00;-20771.09;5070099;28;20436;-65
2021/01/02 06:32:25;;;;;;;0.60;0.50;;;2.70;99.90;;;3.31;100.00;-20772.19;5061776;28;20446;-65
2021/01/02 06:35:21;;;;;;;0.70;0.70;;;2.70;99.90;;;3.28;100.00;-20771.38;5064326;28;20593;-66
2021/01/02 06:38:10;;;;;;;0.60;0.60;;;2.70;99.90;;;3.25;100.00;-20770.53;5071196;28;20485;-66
2021/01/02 06:40:40;;;;;;;0.60;0.50;;;2.70;99.90;;;3.29;100.00;-20771.66;5066176;28;20239;-65
2021/01/02 06:43:13;;;;;;;0.60;0.50;;;2.70;99.90;;;3.34;100.00;-20772.91;5068132;28;20196;-64
2021/01/02 06:45:47;;;;;;;0.60;0.60;;;2.70;99.90;;;3.31;100.00;-20772.06;5057393;28;20189;-65
2021/01/02 06:48:43;;;;;;;0.63;0.60;;;2.70;99.90;;;3.31;100.00;-20772.19;5059913;28;20205;-65
2021/01/02 06:51:40;;;;;;;0.60;0.60;;;2.70;99.90;;;3.38;100.00;-20774.03;5060460;28;20284;-65
2021/01/02 06:54:23;;;;;;;0.60;0.60;;;2.70;99.90;;;3.34;100.00;-20773.03;5014224;28;20437;-65
2021/01/02 06:57:02;;;;;;;0.60;0.50;;;2.70;99.90;;;3.41;100.00;-20774.72;5066575;28;20455;-64
2021/01/02 06:59:29;;;;;;;0.60;0.60;;;2.80;99.90;;;3.49;100.00;-20777.09;5064017;28;20459;-65
2021/01/02 07:01:57;;;;;;;0.60;0.50;;;2.80;99.90;;;3.47;100.00;-20776.41;5061759;28;20432;-65
2021/01/02 07:04:37;;;;;;;0.60;0.60;;;2.80;99.90;;;3.49;100.00;-20776.94;5066969;28;20229;-65
2021/01/02 07:07:06;;;;;;;0.60;0.60;;;2.80;99.90;;;3.39;100.00;-20774.44;5066129;28;20219;-65
2021/01/02 07:09:33;;;;;;;0.60;0.50;;;2.80;99.90;;;3.41;100.00;-20774.84;5062376;28;20205;-65
2021/01/02 07:12:12;;;;;;;0.60;0.60;;;2.80;99.90;;;3.43;100.00;-20775.41;5055584;28;20705;-65
2021/01/02 07:14:41;;;;;;;0.60;0.60;;;2.80;99.90;;;3.44;100.00;-20775.56;5071699;28;20841;-65
2021/01/02 07:17:10;;;;;;;0.60;0.60;;;2.90;99.90;;;3.37;100.00;-20773.88;5062426;28;20501;-66
2021/01/02 07:19:46;;;;;;;0.63;0.60;;;2.80;99.90;;;3.36;100.00;-20773.47;5064326;28;20481;-67
2021/01/02 07:22:26;;;;;;;2.00;1.90;;;2.80;99.90;;;3.30;100.00;-20771.78;5061183;28;20958;-66
2021/01/02 07:25:02;;;;;;;0.60;0.50;;;2.80;99.90;;;3.43;100.00;-20775.28;5061912;28;20668;-66
2021/01/02 07:27:33;;;;;;;0.60;0.50;;;2.90;99.90;;;3.29;100.00;-20771.50;5062724;28;20228;-65
2021/01/02 07:30:05;;;;;;;0.60;0.50;;;2.80;99.90;;;3.30;100.00;-20771.94;5058751;28;20482;-65
2021/01/02 07:32:35;;;;;;;0.60;0.50;;;2.80;99.90;;;3.42;100.00;-20775.00;5065621;28;20462;-65
2021/01/02 07:35:05;;;;;;;0.60;0.60;;;2.90;99.90;;;3.38;100.00;-20774.03;5061411;28;20455;-64
2021/01/02 07:37:35;;;;;;;0.60;0.50;;;2.90;99.90;;;3.30;100.00;-20771.94;5069893;28;20383;-65
2021/01/02 07:40:05;;;;;;;0.68;0.65;;;2.80;99.90;;;3.35;100.00;-20773.19;5065767;28;20237;-65
2021/01/02 07:45:42;;;;;;;0.60;0.50;;;2.80;99.90;;;3.26;100.00;-20770.81;5027831;28;20631;-66
2021/01/02 07:48:10;;;;;;;0.70;0.60;;;2.80;99.90;;;3.38;100.00;-20774.03;5031752;28;20206;-67
2021/01/02 07:50:37;;;;;;;0.68;0.65;;;2.90;99.90;;;3.31;100.00;-20772.19;5031488;28;20295;-67
2021/01/02 07:53:04;;;;;;;0.60;0.60;;;2.80;99.90;;;3.32;100.00;-20772.50;5031297;28;20534;-67
2021/01/02 07:55:33;;;;;;;0.60;0.60;;;2.80;99.90;;;3.31;100.00;-20772.19;5033055;28;20201;-67
2021/01/02 07:58:01;;;;;;;0.63;0.60;;;2.80;99.90;;;3.43;100.00;-20775.28;5031205;28;20186;-67
2021/01/02 08:00:28;;;;;;;0.60;0.50;;;2.90;99.90;;;3.35;100.00;-20773.31;5017724;28;20226;-66
2021/01/02 08:03:02;;;;;;;0.60;0.50;;;2.90;99.90;;;3.32;100.00;-20772.50;5023532;28;20208;-67
2021/01/02 08:05:30;;;;;;;0.60;0.60;;;2.80;99.90;;;3.31;100.00;-20772.19;5013567;28;20201;-67
2021/01/02 08:08:00;;;;;;;0.60;0.55;;;2.80;99.90;;;3.36;100.00;-20773.59;5015974;28;20227;-66
2021/01/02 08:10:28;;;;;;;0.60;0.60;;;2.90;99.90;;;3.42;100.00;-20775.00;5023967;28;20222;-65
2021/01/02 08:12:57;;;;;;;0.60;0.60;;;2.90;99.90;;;3.48;100.00;-20776.66;5010321;28;20199;-66
2021/01/02 08:15:27;;;;;;;0.60;0.57;;;2.90;99.90;;;3.42;100.00;-20775.00;5009040;28;20710;-65
2021/01/02 08:17:59;;;;;;;0.60;0.57;;;2.90;99.90;;;3.44;100.00;-20775.56;5018892;28;20496;-66
2021/01/02 08:20:27;;;;;;;0.70;0.60;;;2.90;99.90;;;3.45;100.00;-20775.84;5012081;28;20195;-65
2021/01/02 08:22:54;;;;;;;0.60;0.60;;;2.90;99.90;;;3.42;100.00;-20775.00;5012916;28;20535;-65
2021/01/02 08:25:22;;;;;;;0.60;0.50;;;2.90;99.90;;;3.47;100.00;-20776.41;5011943;28;20288;-65
2021/01/02 08:27:50;;;;;;;0.60;0.50;;;2.90;99.90;;;3.45;100.00;-20775.97;5023803;28;20445;-66
2021/01/02 08:30:19;;;;;;;0.60;0.60;;;2.90;99.90;;;3.56;100.00;-20778.91;5013253;28;20238;-66
2021/01/02 08:32:52;;;;;;;0.60;0.50;;;3.00;99.90;;;3.52;100.00;-20777.78;5017421;28;20195;-65
2021/01/02 08:35:21;;;;;;;0.60;0.50;;;3.00;99.90;;;3.52;100.00;-20777.94;5027129;28;20194;-65
2021/01/02 08:37:49;;;;;;;3.20;1.60;;;3.00;99.90;;;3.58;100.00;-20779.59;5030665;28;20194;-65
2021/01/02 08:40:19;;;;;;;0.60;0.60;;;3.00;99.90;;;3.63;100.00;-20781.00;5031483;28;20288;-65
2021/01/02 08:42:47;;;;;;;0.70;0.70;;;3.00;99.90;;;3.62;100.00;-20780.72;5026005;28;20657;-66
2021/01/02 08:45:27;;;;;;;0.60;0.60;;;3.00;99.90;;;3.68;100.00;-20782.25;5029813;28;20833;-65
2021/01/02 08:48:05;;;;;;;0.60;0.50;;;3.00;99.90;;;3.83;100.00;-20786.44;5020238;28;20441;-66
2021/01/02 08:50:32;;;;;;;0.60;0.57;;;3.10;99.90;;;3.78;100.00;-20785.03;5024084;28;20510;-66
2021/01/02 08:52:59;;;;;;;0.60;0.50;;;3.10;99.90;;;3.69;100.00;-20782.53;5024948;28;20450;-65
2021/01/02 08:55:29;;;;;;;0.70;0.70;;;3.10;99.90;;;3.81;100.00;-20785.88;5017060;28;20237;-67
2021/01/02 08:57:56;;;;;;;0.60;0.60;;;3.10;99.90;;;3.98;100.00;-20790.34;5033144;28;20198;-65
2021/01/02 09:00:30;;;;;;;1.30;0.80;;;3.10;99.90;;;4.15;100.00;-20794.94;5023447;28;20217;-65
2021/01/02 09:03:05;;;;;;;0.60;0.60;;;3.10;99.90;;;4.05;100.00;-20792.44;5036329;28;20589;-65
2021/01/02 09:05:33;;;;;;;0.60;0.60;;;3.10;99.90;;;3.99;100.00;-20790.63;5019493;28;20449;-65
2021/01/02 09:08:03;;;;;;;0.60;0.60;;;3.10;99.90;;;3.93;100.00;-20788.94;5019839;28;20285;-65
2021/01/02 09:10:34;;;;;;;0.60;0.50;;;3.20;99.90;;;3.95;100.00;-20789.50;5028570;28;20453;-65
2021/01/02 09:13:19;;;;;;;0.60;0.60;;;3.20;99.90;;;3.94;100.00;-20789.22;5020232;28;20252;-64
2021/01/02 09:15:52;;;;;;;0.60;0.50;;;3.20;99.90;;;4.08;100.00;-20793.13;5021802;28;20562;-65
2021/01/02 09:18:44;;;;;;;0.60;0.50;;;3.30;99.90;;;4.21;100.00;-20796.75;5030736;28;20209;-65
2021/01/02 09:21:30;;;;;;;0.60;0.50;;;3.30;99.90;;;4.30;100.00;-20799.25;5022862;28;20283;-65
2021/01/02 09:24:00;;;;;;;0.67;0.63;;;3.30;99.90;;;4.51;100.00;-20804.81;5020402;28;20971;-65
2021/01/02 09:26:31;;;;;;;0.60;0.60;;;3.40;99.90;;;4.43;100.00;-20802.75;5029118;28;20452;-65
2021/01/02 09:29:01;;;;;;;0.60;0.60;;;3.40;99.90;;;4.47;100.00;-20803.72;5016315;28;20500;-65
2021/01/02 09:31:34;;;;;;;0.60;0.57;;;3.40;99.90;;;4.45;100.00;-20803.16;5031578;28;20551;-65
2021/01/02 09:34:01;;;;;;;0.60;0.50;;;3.40;99.90;;;4.46;100.00;-20803.56;5014665;28;20441;-64
2021/01/02 09:36:27;;;;;;;0.70;0.60;;;3.40;99.90;;;4.59;100.00;-20807.06;5014862;28;20480;-65
2021/01/02 09:38:54;;;;;;;0.80;0.80;;;3.50;99.90;;;4.52;100.00;-20805.09;5022378;28;20557;-65
2021/01/02 09:41:25;;;;;;;0.60;0.60;;;3.50;99.90;;;4.59;100.00;-20807.06;5030533;28;20460;-65
2021/01/02 09:43:54;;;;;;;0.60;0.50;;;3.60;99.90;;;4.76;100.00;-20811.78;5018080;28;20513;-65
2021/01/02 09:46:22;;;;;;;0.63;0.60;;;3.60;99.90;;;4.72;100.00;-20810.69;5017079;28;20441;-67
2021/01/02 09:48:51;;;;;;;1.77;1.63;;;3.80;99.90;;;4.85;100.00;-20814.28;5023615;28;20527;-65
2021/01/02 09:51:19;;;;;;;0.60;0.60;;;3.80;99.90;;;4.83;100.00;-20813.75;5019635;28;20445;-69
2021/01/02 09:53:46;;;;;;;0.77;0.77;;;3.90;99.90;;;4.87;100.00;-20814.72;5030390;28;20505;-65
2021/01/02 09:56:13;;;;;;;0.70;0.70;;;4.00;99.90;;;4.93;100.00;-20816.38;5015558;28;20445;-65
2021/01/02 09:58:43;;;;;;;0.70;0.60;;;4.10;99.90;;;4.94;100.00;-20816.53;5023051;28;20496;-65
2021/01/02 10:01:15;;;;;;;0.60;0.60;;;4.10;99.90;;;5.16;100.00;-20822.66;5021454;28;20847;-64
2021/01/02 10:03:42;;;;;;;0.60;0.60;;;4.20;99.90;;;5.52;100.00;-20832.38;5016062;28;20884;-64
2021/01/02 10:06:10;;;;;;;0.70;0.60;;;4.10;99.90;;;5.31;100.00;-20826.69;5009993;28;20927;-65
2021/01/02 10:08:38;;;;;;;0.70;0.60;;;4.20;99.90;;;5.35;100.00;-20827.66;5009467;28;20446;-65
2021/01/02 10:11:05;;;;;;;0.70;0.60;;;4.30;99.90;;;5.72;100.00;-20837.97;5008041;28;20509;-65
2021/01/02 10:13:33;;;;;;;0.70;0.60;;;4.40;99.90;;;5.77;100.00;-20839.34;5009580;28;20532;-68
2021/01/02 10:16:00;;;;;;;0.70;0.60;;;4.40;99.90;;;6.00;100.00;-20845.63;5020538;28;20464;-67
2021/01/02 10:18:31;;;;;;;1.10;1.00;;;4.30;99.90;;;5.72;100.00;-20837.97;5027784;28;20442;-66
2021/01/02 10:20:58;;;;;;;0.70;0.60;;;4.40;99.90;;;5.61;100.00;-20834.75;5024224;28;20538;-65
2021/01/02 10:23:25;;;;;;;1.97;1.37;;;4.60;99.90;;;5.63;100.00;-20835.44;5016950;28;20480;-65
2021/01/02 10:25:53;;;;;;;1.77;1.40;;;4.60;99.90;;;5.67;100.00;-20836.56;5023418;28;20991;-65
2021/01/02 10:28:20;;;;;;;0.70;0.70;;;4.40;99.90;;;5.57;100.00;-20833.91;5018328;28;20508;-65
2021/01/02 10:30:47;;;;;;;0.90;0.90;;;4.50;99.90;;;5.54;100.00;-20833.09;5018888;28;20941;-65
2021/01/02 10:33:15;;;;;;;0.63;0.53;;;4.60;99.90;;;5.57;100.00;-20833.91;5020161;28;20456;-64
2021/01/02 10:35:42;;;;;;;0.70;0.60;;;4.60;99.90;;;5.68;100.00;-20836.84;5010010;28;20442;-65
2021/01/02 10:38:08;;;;;;;0.70;0.60;;;4.60;99.90;;;5.62;100.00;-20835.16;5013342;28;20492;-64
2021/01/02 10:40:35;;;;;;;0.70;0.60;;;4.70;99.90;;;5.79;100.00;-20839.91;5026753;28;20466;-65
2021/01/02 10:43:02;;;;;;;0.70;0.60;;;4.90;99.90;;;5.88;100.00;-20842.28;5026621;28;20576;-65
2021/01/02 10:45:29;;;;;;;0.90;0.90;;;4.80;99.90;;;5.83;100.00;-20840.88;5032767;28;20468;-66
2021/01/02 10:47:59;;;;;;;0.80;0.80;;;4.90;99.90;;;6.36;100.00;-20855.22;5016684;28;20447;-66
2021/01/02 10:50:26;;;;;;;0.70;0.60;;;4.80;99.90;;;5.97;100.00;-20844.63;5020788;28;20447;-65